Share

Waterville, KS (66548)

10:44 PM CDT on April 24, 2014 (GMT -0500)
Manhattan Regional (KMHK) Elev 1056 ft | 39.14 °N, 96.68 °W | Change Station

Current weather conditions updated 52 minutes ago

Clear
Clear
48 °F
Feels Like 48 °F
N
0
Wind Variable Wind from North
Sunrise 6:36 AM
Sunset 8:14 PM
Moon Waning Crescent

Tomorrow is forecast to be Much Warmer than today.

Pressure 29.86 in
Visibility 10.0 miles
Clouds Clear
Dew Point 44 °F
Humidity 86%
Rainfall 0.89 in
Snow Depth Not available.
UV 0 out of 16
Pollen 8.80 out of 12
Air Quality Not available.
Flu Activity No Activity
METAR KMHK 250252Z AUTO 00000KT 10SM CLR 09/07 A2985 RMK AO2 SLP110 T00890067 53014

More Conditions Fewer Conditions

Pressure 29.86 in
Visibility 10.0 miles
Clouds Clear
Dew Point 44 °F
Humidity 86%
Rainfall 0.89 in
Snow Depth Not available.
UV 0 out of 16
Pollen 8.80 out of 12
Air Quality Not available.
Flu Activity No Activity
METAR KMHK 250252Z AUTO 00000KT 10SM CLR 09/07 A2985 RMK AO2 SLP110 T00890067 53014

More Conditions Fewer Conditions

10-Day Weather Forecast

Almanac

Astronomy

Apr. 24, 2014 Rise Set
Actual Time 6:36 AM CDT 8:14 PM CDT
Civil Twilight 6:08 AM CDT 8:42 PM CDT
Nautical Twilight 5:33 AM CDT 9:17 PM CDT
Astronomical Twilight 4:57 AM CDT 9:54 PM CDT
Moon 3:47 AM CDT (4/24) 3:31 PM CDT (4/24)
Length of Visible Light 14h 34m
Length of Day
13h 37m
Tomorrow will be 2m 21s longer.
Waning Crescent, 20% of the Moon is Illuminated
Today
Waning Crescent
Apr 29
New
May 6
First Quarter
May 14
Full
May 21
Last Quarter

Today's Extremes

State Highs State Lows

Community

  • Critter
    Critter
  • Jone Runs Falls
    Jone Runs Falls
  • Easter in Shenandoah National Park
    Easter in Shenandoah National Park
  • Sunset at Apalachicola Bay, Florida
    Sunset at Apalachicola Bay, Florida
  • Clouds mov'n in
    Clouds mov'n in

WunderPhotos

Upload Photos

1,704,828 photos uploaded!

WunderBlogs® & News

Nearby

Snow Depth

Station Depth Elevation
No new snow has been reported.

Coastal Water Temperatures

Place Temperature
No Stations Reporting

Earthquake Activity

City Distance Mag. Time & Date
No recent earthquake activity has been reported nearby.
Minimum magnitude displayed is 2.5.

Nearby Weather Stations

Station Location Temp. Dew Point Humidity Wind Precip. Elev Updated Type
MesoWest BREME1 , Hanover, KS 61 °F - - North  at  - 0.00 in / hr 1318 ft 9:00 PM CDT MADIS
MesoWest WINFRD , Frankfort, KS 60 °F - - North  at  - 0.00 in / hr 1174 ft 9:00 PM CDT MADIS
MesoWest LILLIS , Vermillion, KS 58 °F - - North  at  - 0.00 in / hr 1252 ft 9:00 PM CDT MADIS

Show More Stations Show Fewer Stations

What do you think?

We're not finished. Please let us know what you like, what you don't like, and what you are still missing.